Time;durP1;ratioP1;P1;durP2;ratioP2;P2;SDS_P1;SDS_P2;PMS_P1;PMS_P2;Temp;Humidity;BMP_temperature;BMP_pressure;BME280_temperature;BME280_humidity;BME280_pressure;Samples;Min_cycle;Max_cycle;Signal;HPM_P1;HPM_P2
2021/11/06 00:01:24;;;;;;;34.50;12.88;;;19.70;64.10;;;;;;5070435;28;20050;-39
2021/11/06 00:03:51;;;;;;;41.53;12.95;;;19.60;63.90;;;;;;5069184;28;20052;-40
2021/11/06 00:06:18;;;;;;;30.63;10.90;;;19.60;63.80;;;;;;5068730;28;20117;-39
2021/11/06 00:08:45;;;;;;;30.13;10.52;;;19.60;63.60;;;;;;5068514;28;20436;-41
2021/11/06 00:11:12;;;;;;;31.30;10.68;;;19.60;63.40;;;;;;5070740;28;20051;-41
2021/11/06 00:13:40;;;;;;;19.95;8.20;;;19.60;63.40;;;;;;5068914;28;20650;-41
2021/11/06 00:16:08;;;;;;;33.15;8.68;;;19.60;63.30;;;;;;5066014;28;20032;-41
2021/11/06 00:18:35;;;;;;;25.52;9.60;;;19.60;63.20;;;;;;5074653;28;20507;-41
2021/11/06 00:21:02;;;;;;;21.50;7.25;;;19.60;63.10;;;;;;5078421;28;20040;-41
2021/11/06 00:23:29;;;;;;;23.25;8.55;;;19.60;63.00;;;;;;5083821;28;20052;-41
2021/11/06 00:25:56;;;;;;;22.48;7.28;;;19.50;62.80;;;;;;5077535;28;20515;-41
2021/11/06 00:28:23;;;;;;;22.95;9.40;;;19.50;62.70;;;;;;5074907;28;20048;-41
2021/11/06 00:30:51;;;;;;;20.63;7.05;;;19.50;62.60;;;;;;5075850;28;20522;-41
2021/11/06 00:33:19;;;;;;;31.80;7.78;;;19.50;62.40;;;;;;5079666;28;20040;-41
2021/11/06 00:35:46;;;;;;;19.63;7.85;;;19.50;62.30;;;;;;5075213;28;20043;-41
2021/11/06 00:38:13;;;;;;;21.58;6.78;;;19.40;62.30;;;;;;5080431;28;20036;-41
2021/11/06 00:40:40;;;;;;;15.43;4.93;;;19.40;62.20;;;;;;5068354;28;20132;-41
2021/11/06 00:43:07;;;;;;;24.00;5.13;;;19.40;62.10;;;;;;5076250;28;20048;-41
2021/11/06 00:45:34;;;;;;;10.30;4.60;;;19.40;62.00;;;;;;5077788;28;20133;-41
2021/11/06 00:48:01;;;;;;;16.13;5.32;;;19.40;61.80;;;;;;5076845;28;20080;-41
2021/11/06 00:50:30;;;;;;;16.83;4.95;;;19.40;61.70;;;;;;5082892;28;20044;-41
2021/11/06 00:52:58;;;;;;;15.73;6.22;;;19.40;61.60;;;;;;5078729;28;20162;-40
2021/11/06 00:55:26;;;;;;;10.02;4.70;;;19.30;61.50;;;;;;5074686;28;20050;-41
2021/11/06 00:57:53;;;;;;;12.32;4.07;;;19.30;61.40;;;;;;5073669;28;20029;-41
2021/11/06 01:00:21;;;;;;;8.85;3.95;;;19.30;61.60;;;;;;5075796;28;20036;-41
2021/11/06 01:02:50;;;;;;;8.95;3.53;;;19.30;61.50;;;;;;5080172;28;20198;-41
2021/11/06 01:05:19;;;;;;;14.55;3.45;;;19.30;61.50;;;;;;5081890;28;20040;-41
2021/11/06 01:07:47;;;;;;;6.07;3.47;;;19.30;61.70;;;;;;5068647;28;20138;-41
2021/11/06 01:10:16;;;;;;;10.50;4.38;;;19.30;61.40;;;;;;5074861;28;20051;-41
2021/11/06 01:12:43;;;;;;;9.23;3.88;;;19.30;61.40;;;;;;5075872;28;20075;-41
2021/11/06 01:15:12;;;;;;;13.00;4.03;;;19.20;61.40;;;;;;5079316;28;20033;-41
2021/11/06 01:17:40;;;;;;;9.20;2.38;;;19.20;61.30;;;;;;5077210;28;20572;-40
2021/11/06 01:20:08;;;;;;;6.03;3.05;;;19.20;61.20;;;;;;5078610;28;20047;-41
2021/11/06 01:22:35;;;;;;;5.50;2.22;;;19.20;61.10;;;;;;5072831;28;20050;-40
2021/11/06 01:25:05;;;;;;;6.85;2.40;;;19.20;61.10;;;;;;5075991;28;20039;-41
2021/11/06 01:27:32;;;;;;;4.82;2.60;;;19.10;60.90;;;;;;5071031;28;20547;-40
2021/11/06 01:29:59;;;;;;;3.70;2.50;;;19.10;61.40;;;;;;5077785;28;20055;-41
2021/11/06 01:32:26;;;;;;;7.60;2.13;;;19.10;60.90;;;;;;5072127;28;20036;-40
2021/11/06 01:34:53;;;;;;;11.02;1.67;;;19.10;61.00;;;;;;5076732;28;20476;-40
2021/11/06 01:37:20;;;;;;;4.32;1.85;;;19.10;61.00;;;;;;5073210;28;20088;-41
2021/11/06 01:39:47;;;;;;;4.38;1.80;;;19.10;61.00;;;;;;5078310;28;20048;-39
2021/11/06 01:42:16;;;;;;;3.10;1.58;;;19.10;61.00;;;;;;5076347;28;20518;-40
2021/11/06 01:44:43;;;;;;;4.25;1.55;;;19.10;61.00;;;;;;5080212;28;20043;-41
2021/11/06 01:47:10;;;;;;;7.15;1.63;;;19.10;61.00;;;;;;5079640;28;20054;-40
2021/11/06 01:49:38;;;;;;;2.72;1.45;;;19.10;61.10;;;;;;5070697;28;20097;-41
2021/11/06 01:52:06;;;;;;;1.60;1.50;;;19.00;61.00;;;;;;5074462;28;20054;-41
2021/11/06 01:54:33;;;;;;;4.22;1.52;;;19.00;61.00;;;;;;5076878;28;20036;-41
2021/11/06 01:57:01;;;;;;;7.45;1.85;;;19.00;61.00;;;;;;5074468;28;20033;-40
2021/11/06 01:59:30;;;;;;;6.50;1.23;;;19.00;61.10;;;;;;5078216;28;20093;-40
2021/11/06 02:01:58;;;;;;;1.85;1.10;;;19.00;61.10;;;;;;5074290;28;20131;-40
2021/11/06 02:04:25;;;;;;;1.75;0.70;;;19.00;61.00;;;;;;5075461;28;20040;-41
2021/11/06 02:06:52;;;;;;;3.53;1.60;;;19.00;60.90;;;;;;5077237;28;20070;-42
2021/11/06 02:09:20;;;;;;;4.65;1.08;;;19.00;60.90;;;;;;5072238;28;20492;-41
2021/11/06 02:11:47;;;;;;;4.38;1.02;;;19.00;60.90;;;;;;5060880;28;20076;-40
2021/11/06 02:14:14;;;;;;;2.67;0.80;;;18.90;60.80;;;;;;5079197;28;20397;-40
2021/11/06 02:16:42;;;;;;;3.88;1.98;;;18.90;60.80;;;;;;5072812;28;20042;-40
2021/11/06 02:19:09;;;;;;;4.38;1.05;;;18.90;60.80;;;;;;5072200;28;20607;-41
2021/11/06 02:21:38;;;;;;;4.30;1.67;;;18.90;60.80;;;;;;5075786;28;20036;-40
2021/11/06 02:24:06;;;;;;;4.50;1.42;;;18.90;60.80;;;;;;5076761;28;20463;-40
2021/11/06 02:26:34;;;;;;;1.73;0.73;;;18.90;60.80;;;;;;5081154;28;20194;-40
2021/11/06 02:29:03;;;;;;;1.85;1.23;;;18.90;60.80;;;;;;5076494;28;20032;-40
2021/11/06 02:31:30;;;;;;;1.27;0.50;;;18.90;60.70;;;;;;5072298;28;20049;-40
2021/11/06 02:33:58;;;;;;;2.40;0.95;;;18.80;60.60;;;;;;5075089;28;20040;-40
2021/11/06 02:36:25;;;;;;;2.22;1.20;;;18.80;60.50;;;;;;5076629;28;20512;-40
2021/11/06 02:38:53;;;;;;;1.05;0.50;;;18.80;60.70;;;;;;5076571;28;20076;-39
2021/11/06 02:41:20;;;;;;;3.67;0.75;;;18.80;60.60;;;;;;5080314;28;20063;-40
2021/11/06 02:43:47;;;;;;;1.60;0.70;;;18.80;60.50;;;;;;5079007;28;20047;-40
2021/11/06 02:46:14;;;;;;;2.83;0.73;;;18.80;60.40;;;;;;5077017;28;20052;-40
2021/11/06 02:48:41;;;;;;;2.78;0.47;;;18.80;60.40;;;;;;5079463;28;20051;-40
2021/11/06 02:51:08;;;;;;;1.95;0.80;;;18.80;60.30;;;;;;5076686;28;20087;-40
2021/11/06 02:53:35;;;;;;;0.90;0.52;;;18.80;60.30;;;;;;5084730;28;20044;-40
2021/11/06 02:56:04;;;;;;;2.60;0.52;;;18.80;60.20;;;;;;5079422;28;20040;-40
2021/11/06 02:58:32;;;;;;;1.60;0.30;;;18.80;60.20;;;;;;5077769;28;20509;-40
2021/11/06 03:01:00;;;;;;;1.63;0.38;;;18.70;60.10;;;;;;5076683;28;20087;-40
2021/11/06 03:03:27;;;;;;;3.30;1.38;;;18.70;60.70;;;;;;5079832;28;20040;-41
2021/11/06 03:05:55;;;;;;;2.28;0.73;;;18.70;60.00;;;;;;5079149;28;20509;-40
2021/11/06 03:08:22;;;;;;;0.82;0.40;;;18.70;60.00;;;;;;5088619;28;20040;-45
2021/11/06 03:10:49;;;;;;;1.25;0.80;;;18.70;60.10;;;;;;5079231;28;20066;-40
2021/11/06 03:13:17;;;;;;;2.45;0.40;;;18.70;60.10;;;;;;5075018;28;20048;-40
2021/11/06 03:15:44;;;;;;;4.05;0.63;;;18.70;60.10;;;;;;5079560;28;20055;-40
2021/11/06 03:18:11;;;;;;;5.35;1.42;;;18.70;60.10;;;;;;5079544;28;20037;-40
2021/11/06 03:20:38;;;;;;;1.83;0.40;;;18.70;60.10;;;;;;5083764;28;20046;-40
2021/11/06 03:23:05;;;;;;;1.88;0.55;;;18.70;60.00;;;;;;5078503;28;20044;-40
2021/11/06 03:25:32;;;;;;;3.83;0.30;;;18.60;59.80;;;;;;5073101;28;20071;-40
2021/11/06 03:27:59;;;;;;;0.60;0.22;;;18.60;59.80;;;;;;5064161;28;20119;-40
2021/11/06 03:30:27;;;;;;;1.45;0.63;;;18.60;59.80;;;;;;5077833;28;20067;-40
2021/11/06 03:32:55;;;;;;;2.65;0.82;;;18.60;59.80;;;;;;5075703;28;20512;-40
2021/11/06 03:35:24;;;;;;;1.33;0.32;;;18.60;59.70;;;;;;5085075;28;20043;-40
2021/11/06 03:37:51;;;;;;;1.77;0.75;;;18.60;59.70;;;;;;5074883;28;20403;-40
2021/11/06 03:40:19;;;;;;;2.40;0.57;;;18.60;59.60;;;;;;5076836;28;20041;-39
2021/11/06 03:42:47;;;;;;;0.45;0.22;;;18.60;59.50;;;;;;5076126;28;20089;-41
2021/11/06 03:45:16;;;;;;;2.00;0.40;;;18.60;59.60;;;;;;5079404;28;20045;-41
2021/11/06 03:47:44;;;;;;;0.50;0.50;;;18.60;59.50;;;;;;5080413;28;20044;-41
2021/11/06 03:50:12;;;;;;;1.35;0.43;;;18.60;59.40;;;;;;5078405;28;20047;-41
2021/11/06 03:52:39;;;;;;;2.80;0.32;;;18.60;59.40;;;;;;5075828;28;20891;-41
2021/11/06 03:55:09;;;;;;;0.95;0.20;;;18.60;59.40;;;;;;5074672;28;20052;-39
2021/11/06 03:57:36;;;;;;;0.45;0.20;;;18.60;59.30;;;;;;5067212;28;20044;-40
2021/11/06 04:00:05;;;;;;;3.13;0.35;;;18.60;59.40;;;;;;5079395;28;20041;-41
2021/11/06 04:02:33;;;;;;;0.73;0.57;;;18.60;59.30;;;;;;5084607;28;20504;-41
2021/11/06 04:05:01;;;;;;;0.40;0.20;;;18.60;59.30;;;;;;5076357;28;20048;-41
2021/11/06 04:07:28;;;;;;;3.15;1.05;;;18.60;59.20;;;;;;5078422;28;20068;-41
2021/11/06 04:09:56;;;;;;;1.42;0.40;;;18.60;59.20;;;;;;5076177;28;20063;-41
2021/11/06 04:12:23;;;;;;;1.70;0.28;;;18.50;59.30;;;;;;5080654;28;20040;-41
2021/11/06 04:14:50;;;;;;;2.92;0.38;;;18.60;59.30;;;;;;5074661;28;20083;-41
2021/11/06 04:17:17;;;;;;;3.53;0.28;;;18.60;59.30;;;;;;5081364;28;20044;-41
2021/11/06 04:19:44;;;;;;;4.18;0.52;;;18.50;59.10;;;;;;5075386;28;20036;-41
2021/11/06 04:22:12;;;;;;;0.63;0.43;;;18.50;59.10;;;;;;5078160;28;20040;-40
2021/11/06 04:24:40;;;;;;;2.15;0.30;;;18.50;59.10;;;;;;5076808;28;20477;-41
2021/11/06 04:27:07;;;;;;;0.40;0.40;;;18.50;59.00;;;;;;5078741;28;20037;-41
2021/11/06 04:29:35;;;;;;;1.15;0.20;;;18.50;59.00;;;;;;5082635;28;20055;-41
2021/11/06 04:32:03;;;;;;;0.88;0.20;;;18.50;59.00;;;;;;5076660;28;20540;-41
2021/11/06 04:34:30;;;;;;;1.33;0.55;;;18.50;58.90;;;;;;5074739;28;20055;-42
2021/11/06 04:36:57;;;;;;;0.30;0.20;;;18.50;58.80;;;;;;5074474;28;20036;-41
2021/11/06 04:39:26;;;;;;;1.58;0.25;;;18.50;58.80;;;;;;5080877;28;20044;-41
2021/11/06 04:41:53;;;;;;;0.30;0.20;;;18.50;58.80;;;;;;5073989;28;20045;-41
2021/11/06 04:44:20;;;;;;;0.43;0.40;;;18.50;58.60;;;;;;5076407;28;20134;-41
2021/11/06 04:46:47;;;;;;;1.02;0.32;;;18.40;58.50;;;;;;5073342;28;20051;-41
2021/11/06 04:49:14;;;;;;;0.73;0.40;;;18.40;58.60;;;;;;5077887;28;20051;-41
2021/11/06 04:51:41;;;;;;;0.30;0.17;;;18.40;58.70;;;;;;5077054;28;20044;-41
2021/11/06 04:54:08;;;;;;;1.25;0.50;;;18.40;58.70;;;;;;5080999;28;20036;-41
2021/11/06 04:56:36;;;;;;;2.42;0.20;;;18.40;58.60;;;;;;5080663;28;20696;-41
2021/11/06 04:59:04;;;;;;;0.50;0.40;;;18.40;58.60;;;;;;5080062;28;20790;-41
2021/11/06 05:01:31;;;;;;;1.95;0.20;;;18.40;58.60;;;;;;5074224;28;20048;-41
2021/11/06 05:03:58;;;;;;;0.80;0.20;;;18.40;58.50;;;;;;5072785;28;20054;-41
2021/11/06 05:06:27;;;;;;;0.60;0.30;;;18.40;58.50;;;;;;5075337;28;20040;-41
2021/11/06 05:08:54;;;;;;;2.40;0.50;;;18.40;58.50;;;;;;5078818;28;20045;-42
2021/11/06 05:11:21;;;;;;;1.58;0.30;;;18.40;58.40;;;;;;5082620;28;20146;-42
2021/11/06 05:13:49;;;;;;;1.10;0.28;;;18.40;58.50;;;;;;5075248;28;20055;-41
2021/11/06 05:16:17;;;;;;;1.38;0.63;;;18.40;58.40;;;;;;5074790;28;20044;-41
2021/11/06 05:18:45;;;;;;;1.83;0.30;;;18.40;58.40;;;;;;5075941;28;20434;-41
2021/11/06 05:21:12;;;;;;;0.30;0.30;;;18.40;58.30;;;;;;5071023;28;20029;-41
2021/11/06 05:23:39;;;;;;;1.20;0.35;;;18.30;58.00;;;;;;5075498;28;20127;-41
2021/11/06 05:26:06;;;;;;;1.13;0.30;;;18.30;58.10;;;;;;5079588;28;20063;-40
2021/11/06 05:28:33;;;;;;;2.15;0.30;;;18.30;58.10;;;;;;5073203;28;20036;-40
2021/11/06 05:31:01;;;;;;;2.25;0.20;;;18.40;58.30;;;;;;5068702;28;20147;-40
2021/11/06 05:33:28;;;;;;;1.40;0.55;;;18.30;58.20;;;;;;5074871;28;20040;-41
2021/11/06 05:35:55;;;;;;;0.95;0.20;;;18.30;58.20;;;;;;5076389;28;20053;-41
2021/11/06 05:38:23;;;;;;;0.75;0.40;;;18.30;58.20;;;;;;5078064;28;20036;-40
2021/11/06 05:40:50;;;;;;;1.00;0.40;;;18.30;58.20;;;;;;5069617;28;20048;-40
2021/11/06 05:43:17;;;;;;;1.35;0.30;;;18.30;58.10;;;;;;5070683;28;20044;-40
2021/11/06 05:45:44;;;;;;;0.65;0.30;;;18.30;58.10;;;;;;5073382;28;20040;-40
2021/11/06 05:48:12;;;;;;;2.80;0.40;;;18.30;58.10;;;;;;5074371;28;20036;-40
2021/11/06 05:50:39;;;;;;;1.98;0.95;;;18.30;58.10;;;;;;5067294;28;20464;-40
2021/11/06 05:53:06;;;;;;;0.55;0.20;;;18.30;58.20;;;;;;5070217;28;20479;-41
2021/11/06 05:55:33;;;;;;;1.00;0.35;;;18.30;58.20;;;;;;5064697;28;20802;-41
2021/11/06 05:58:00;;;;;;;5.93;0.30;;;18.30;58.20;;;;;;5068552;28;20036;-40
2021/11/06 06:00:27;;;;;;;1.65;0.20;;;18.20;58.00;;;;;;5064300;28;20036;-40
2021/11/06 06:02:54;;;;;;;0.68;0.68;;;18.20;58.00;;;;;;5066125;28;20669;-42
2021/11/06 06:05:23;;;;;;;5.40;0.30;;;18.30;58.10;;;;;;5067792;28;20036;-40
2021/11/06 06:07:50;;;;;;;1.70;0.32;;;18.20;58.10;;;;;;5066011;28;20560;-40
2021/11/06 06:10:17;;;;;;;1.23;0.50;;;18.20;58.20;;;;;;5068930;28;20049;-40
2021/11/06 06:12:50;;;;;;;3.90;0.38;;;18.20;58.20;;;;;;5073115;28;20040;-41
2021/11/06 06:15:17;;;;;;;7.45;0.30;;;18.20;58.20;;;;;;5063235;28;20033;-41
2021/11/06 06:17:44;;;;;;;12.30;0.70;;;18.20;58.30;;;;;;5078342;28;20412;-41
2021/11/06 06:20:12;;;;;;;6.70;0.40;;;18.20;58.30;;;;;;5077722;28;20071;-43
2021/11/06 06:22:41;;;;;;;5.32;0.30;;;18.20;58.40;;;;;;5076702;28;20040;-39
2021/11/06 06:25:10;;;;;;;5.60;1.58;;;18.20;58.70;;;;;;5073766;28;20032;-40
2021/11/06 06:27:38;;;;;;;7.03;1.50;;;18.20;58.90;;;;;;5076643;28;20081;-40
2021/11/06 06:30:08;;;;;;;6.28;1.05;;;18.20;59.30;;;;;;5075787;28;20044;-41
2021/11/06 06:32:36;;;;;;;8.18;0.60;;;18.20;59.50;;;;;;5072901;28;20151;-42
2021/11/06 06:35:04;;;;;;;0.88;0.20;;;18.20;59.70;;;;;;5069847;28;20040;-42
2021/11/06 06:37:31;;;;;;;3.83;0.70;;;18.20;59.90;;;;;;5068523;28;20090;-41
2021/11/06 06:39:59;;;;;;;6.78;0.50;;;18.20;60.00;;;;;;5074324;28;20055;-41
2021/11/06 06:42:26;;;;;;;3.90;0.40;;;18.20;60.20;;;;;;5076301;28;20063;-41
2021/11/06 06:44:54;;;;;;;7.03;0.40;;;18.20;60.30;;;;;;5078904;28;20374;-41
2021/11/06 06:47:21;;;;;;;9.00;0.38;;;18.20;60.40;;;;;;5072990;28;20475;-41
2021/11/06 06:49:49;;;;;;;3.08;0.75;;;18.20;60.30;;;;;;5074096;28;20047;-41
2021/11/06 06:52:17;;;;;;;2.40;0.60;;;18.20;60.20;;;;;;5072278;28;20052;-41
2021/11/06 06:54:44;;;;;;;3.83;0.55;;;18.20;60.10;;;;;;5078142;28;20655;-41
2021/11/06 06:57:12;;;;;;;5.82;1.48;;;18.20;60.00;;;;;;5071246;28;20729;-41
2021/11/06 06:59:39;;;;;;;6.55;1.35;;;18.20;59.80;;;;;;5073394;28;20040;-41
2021/11/06 07:02:07;;;;;;;9.57;1.33;;;18.20;59.70;;;;;;5074735;28;20051;-41
2021/11/06 07:04:35;;;;;;;5.95;0.82;;;18.20;59.50;;;;;;5078702;28;20101;-41
2021/11/06 07:07:02;;;;;;;2.85;0.93;;;18.20;59.40;;;;;;5073731;28;20037;-41
2021/11/06 07:09:29;;;;;;;6.75;1.35;;;18.20;59.30;;;;;;5076201;28;20057;-41
2021/11/06 07:11:56;;;;;;;1.95;0.73;;;18.20;59.10;;;;;;5075691;28;20051;-41
2021/11/06 07:14:24;;;;;;;1.08;0.30;;;18.20;59.00;;;;;;5082073;28;20040;-41
2021/11/06 07:16:52;;;;;;;5.85;0.68;;;18.20;58.80;;;;;;5073456;28;20046;-41
2021/11/06 07:19:19;;;;;;;3.65;0.40;;;18.10;58.70;;;;;;5071287;28;20036;-41
2021/11/06 07:21:46;;;;;;;1.80;0.55;;;18.10;58.60;;;;;;5069206;28;20049;-40
2021/11/06 07:24:13;;;;;;;1.30;0.57;;;18.10;58.50;;;;;;5076179;28;20044;-41
2021/11/06 07:26:40;;;;;;;2.05;1.10;;;18.10;58.30;;;;;;5083579;28;20044;-41
2021/11/06 07:29:08;;;;;;;2.40;0.50;;;18.10;58.30;;;;;;5074634;28;20050;-41
2021/11/06 07:31:36;;;;;;;3.70;0.55;;;18.10;58.20;;;;;;5078194;28;20150;-41
2021/11/06 07:34:04;;;;;;;4.85;0.82;;;18.10;58.10;;;;;;5076045;28;20052;-41
2021/11/06 07:36:31;;;;;;;3.45;0.88;;;18.10;58.10;;;;;;5083939;28;20143;-40
2021/11/06 07:38:58;;;;;;;0.70;0.65;;;18.10;57.90;;;;;;5075479;28;20041;-41
2021/11/06 07:41:25;;;;;;;1.70;0.43;;;18.10;57.90;;;;;;5078634;28;20134;-41
2021/11/06 07:43:53;;;;;;;1.45;0.50;;;18.10;57.80;;;;;;5075437;28;20062;-41
2021/11/06 07:46:20;;;;;;;0.52;0.30;;;18.00;57.70;;;;;;5066692;28;20041;-41
2021/11/06 07:48:50;;;;;;;2.15;1.02;;;18.00;57.70;;;;;;5063149;28;20032;-41
2021/11/06 07:51:17;;;;;;;2.47;0.60;;;18.10;57.60;;;;;;5079743;28;20476;-41
2021/11/06 07:53:46;;;;;;;1.60;0.57;;;18.10;57.50;;;;;;5080265;28;20081;-41
2021/11/06 07:56:14;;;;;;;2.33;1.13;;;18.00;57.40;;;;;;5082106;28;20066;-40
2021/11/06 07:58:41;;;;;;;4.30;0.60;;;18.00;57.30;;;;;;5072520;28;20040;-41
2021/11/06 08:01:08;;;;;;;0.80;0.20;;;18.00;57.10;;;;;;5061639;28;20037;-40
2021/11/06 08:03:36;;;;;;;3.25;0.20;;;18.10;57.10;;;;;;5065295;28;20067;-40
2021/11/06 08:06:04;;;;;;;0.60;0.30;;;18.10;57.00;;;;;;5078852;28;20515;-41
2021/11/06 08:08:31;;;;;;;0.45;0.38;;;18.10;56.90;;;;;;5072776;28;20489;-40
2021/11/06 08:10:59;;;;;;;1.98;0.20;;;18.10;56.80;;;;;;5075109;28;20044;-40
2021/11/06 08:13:28;;;;;;;1.42;0.25;;;18.00;56.60;;;;;;5077340;28;20107;-40
2021/11/06 08:15:55;;;;;;;0.22;0.22;;;18.10;56.70;;;;;;5062118;28;20044;-40
2021/11/06 08:18:22;;;;;;;0.50;0.25;;;18.10;56.60;;;;;;5078623;28;20135;-40
2021/11/06 08:20:50;;;;;;;4.13;0.20;;;18.10;56.50;;;;;;5076377;28;20505;-40
2021/11/06 08:23:18;;;;;;;1.58;0.70;;;18.10;56.40;;;;;;5082261;28;20044;-40
2021/11/06 08:25:47;;;;;;;3.88;0.30;;;18.10;56.40;;;;;;5075062;28;20731;-40
2021/11/06 08:28:14;;;;;;;0.70;0.20;;;18.00;56.30;;;;;;5076988;28;20049;-40
2021/11/06 08:30:42;;;;;;;0.90;0.25;;;18.00;56.20;;;;;;5074904;28;20390;-40
2021/11/06 08:33:10;;;;;;;0.95;0.10;;;18.00;56.20;;;;;;5078944;28;20045;-40
2021/11/06 08:35:37;;;;;;;2.05;0.30;;;18.00;56.20;;;;;;5082040;28;20052;-40
2021/11/06 08:38:05;;;;;;;5.70;0.40;;;18.00;56.10;;;;;;5076822;28;20043;-40
2021/11/06 08:40:33;;;;;;;1.38;0.20;;;18.00;56.00;;;;;;5074585;28;20056;-41
2021/11/06 08:43:01;;;;;;;1.27;0.30;;;18.00;55.90;;;;;;5074573;28;20599;-40
2021/11/06 08:45:28;;;;;;;2.05;0.50;;;18.00;55.80;;;;;;5071894;28;20123;-40
2021/11/06 08:47:56;;;;;;;1.65;0.22;;;18.00;55.70;;;;;;5079522;28;20057;-40
2021/11/06 08:50:26;;;;;;;2.42;0.30;;;18.00;55.70;;;;;;5084588;28;20075;-40
2021/11/06 08:52:55;;;;;;;0.30;0.20;;;18.10;55.70;;;;;;5074049;28;20046;-41
2021/11/06 08:55:23;;;;;;;0.40;0.38;;;18.10;55.50;;;;;;5077530;28;20043;-40
2021/11/06 08:57:52;;;;;;;2.15;0.43;;;18.00;55.40;;;;;;5075255;28;20043;-41
2021/11/06 09:00:26;;;;;;;0.50;0.40;;;18.00;55.30;;;;;;5077744;28;20044;-41
2021/11/06 09:02:54;;;;;;;1.00;0.20;;;18.10;55.30;;;;;;5073683;28;20033;-40
2021/11/06 09:05:21;;;;;;;2.75;0.32;;;18.00;55.20;;;;;;5083336;28;20051;-40
2021/11/06 09:07:49;;;;;;;0.68;0.17;;;18.10;55.20;;;;;;5071004;28;20044;-40
2021/11/06 09:10:19;;;;;;;1.50;0.65;;;18.10;55.10;;;;;;5065650;28;20044;-40
2021/11/06 09:12:47;;;;;;;0.47;0.30;;;18.10;55.00;;;;;;5073788;28;20049;-41
2021/11/06 09:15:15;;;;;;;1.00;0.20;;;18.10;54.90;;;;;;5070291;28;20041;-40
2021/11/06 09:17:42;;;;;;;0.38;0.20;;;18.10;54.80;;;;;;5079864;28;20044;-41
2021/11/06 09:20:11;;;;;;;1.08;0.20;;;18.10;54.60;;;;;;5078925;28;20059;-41
2021/11/06 09:22:39;;;;;;;1.10;0.70;;;18.10;54.50;;;;;;5068992;28;20172;-41
2021/11/06 09:25:08;;;;;;;3.28;0.10;;;18.20;54.50;;;;;;5060791;28;20040;-43
2021/11/06 09:27:35;;;;;;;0.60;0.55;;;18.10;54.30;;;;;;5067741;28;20047;-40
2021/11/06 09:30:03;;;;;;;0.22;0.20;;;18.20;54.30;;;;;;5078321;28;20033;-40
2021/11/06 09:32:32;;;;;;;0.10;0.10;;;18.20;54.20;;;;;;5083745;28;20040;-42
2021/11/06 09:34:59;;;;;;;1.15;0.30;;;18.20;54.10;;;;;;5072526;28;20036;-41
2021/11/06 09:37:26;;;;;;;0.55;0.10;;;18.20;54.00;;;;;;5068761;28;20063;-40
2021/11/06 09:39:54;;;;;;;0.35;0.32;;;18.20;53.90;;;;;;5061370;28;20040;-40
2021/11/06 09:42:21;;;;;;;0.20;0.10;;;18.20;54.40;;;;;;5063384;28;20080;-40
2021/11/06 09:44:51;;;;;;;0.20;0.20;;;18.20;53.70;;;;;;5075620;28;20143;-40
2021/11/06 09:47:18;;;;;;;0.25;0.10;;;18.30;53.70;;;;;;5080090;28;20044;-40
2021/11/06 09:49:48;;;;;;;3.63;0.75;;;18.30;53.60;;;;;;5070638;28;20059;-40
2021/11/06 09:52:15;;;;;;;1.48;0.30;;;18.30;53.50;;;;;;5057981;28;20033;-40
2021/11/06 09:54:44;;;;;;;0.43;0.15;;;18.30;53.40;;;;;;5061905;28;20124;-41
2021/11/06 09:57:11;;;;;;;0.40;0.20;;;18.30;53.40;;;;;;5077236;28;20062;-39
2021/11/06 09:59:38;;;;;;;0.88;0.32;;;18.30;53.20;;;;;;5074243;28;20496;-45
2021/11/06 10:02:06;;;;;;;0.50;0.20;;;18.40;53.20;;;;;;5077961;28;20123;-40
2021/11/06 10:04:34;;;;;;;0.98;0.30;;;18.40;53.20;;;;;;5072860;28;20111;-40
2021/11/06 10:07:15;;;;;;;0.88;0.30;;;18.40;53.10;;;;;;5072163;28;20098;-40
2021/11/06 10:09:54;;;;;;;0.10;0.10;;;18.40;52.90;;;;;;5068420;28;20133;-41
2021/11/06 10:12:21;;;;;;;0.20;0.10;;;18.40;53.00;;;;;;5070565;28;20044;-41
2021/11/06 10:15:01;;;;;;;1.60;0.28;;;18.50;52.90;;;;;;5079154;28;20131;-40
2021/11/06 10:17:28;;;;;;;0.20;0.20;;;18.50;52.90;;;;;;5077818;28;20078;-40
2021/11/06 10:19:55;;;;;;;0.30;0.10;;;18.50;52.80;;;;;;5076892;28;20044;-41
2021/11/06 10:22:25;;;;;;;0.10;0.10;;;18.60;52.80;;;;;;5073994;28;20598;-40
2021/11/06 10:24:54;;;;;;;1.00;0.20;;;18.60;52.60;;;;;;5076386;28;20542;-40
2021/11/06 10:27:23;;;;;;;0.95;0.10;;;18.60;52.50;;;;;;5075566;28;20090;-40
2021/11/06 10:30:02;;;;;;;1.38;0.10;;;18.60;52.40;;;;;;5078731;28;20045;-41
2021/11/06 10:32:30;;;;;;;1.45;0.10;;;18.70;52.30;;;;;;5082820;28;20071;-41
2021/11/06 10:35:11;;;;;;;3.22;0.50;;;18.70;52.30;;;;;;5065346;28;20086;-40
2021/11/06 10:37:41;;;;;;;0.15;0.15;;;18.70;52.10;;;;;;5070053;28;20139;-40
2021/11/06 10:40:09;;;;;;;0.63;0.15;;;18.80;52.10;;;;;;5072849;28;20057;-41
2021/11/06 10:42:37;;;;;;;0.85;0.20;;;18.80;52.00;;;;;;5080210;28;20086;-40
2021/11/06 10:45:11;;;;;;;0.75;0.15;;;18.80;51.90;;;;;;5072718;28;20045;-40
2021/11/06 10:48:01;;;;;;;0.10;0.10;;;18.90;51.80;;;;;;5079974;28;20555;-40
2021/11/06 10:50:59;;;;;;;1.90;0.10;;;18.90;51.60;;;;;;5079991;28;20047;-41
2021/11/06 10:53:45;;;;;;;0.20;0.20;;;19.00;51.60;;;;;;5008381;28;20050;-39
2021/11/06 10:56:38;;;;;;;0.10;0.10;;;19.10;51.60;;;;;;5015487;28;20071;-40
2021/11/06 10:59:10;;;;;;;0.57;0.10;;;19.00;51.50;;;;;;4982899;28;20149;-41
2021/11/06 11:01:40;;;;;;;0.10;0.10;;;19.10;51.60;;;;;;5006417;28;20133;-40
2021/11/06 11:04:09;;;;;;;1.10;0.10;;;19.10;51.50;;;;;;5006426;28;20046;-40
2021/11/06 11:06:39;;;;;;;1.23;0.10;;;19.20;51.50;;;;;;5002574;28;20073;-40
2021/11/06 11:09:14;;;;;;;1.17;0.10;;;19.20;51.30;;;;;;5004453;28;20042;-40
2021/11/06 11:11:42;;;;;;;1.17;0.52;;;19.30;51.20;;;;;;5003856;28;20077;-40
2021/11/06 11:14:11;;;;;;;2.58;0.20;;;19.40;51.20;;;;;;5006720;28;20152;-40
2021/11/06 11:16:40;;;;;;;0.75;0.30;;;19.40;51.00;;;;;;5003517;28;20421;-40
2021/11/06 11:19:09;;;;;;;0.95;0.40;;;19.50;50.90;;;;;;5007497;28;20050;-41
2021/11/06 11:21:42;;;;;;;0.77;0.40;;;19.50;50.60;;;;;;5016610;28;20053;-40
2021/11/06 11:24:13;;;;;;;1.30;0.73;;;19.60;50.40;;;;;;5002353;28;20069;-41
2021/11/06 11:26:42;;;;;;;1.27;0.32;;;19.70;50.30;;;;;;4994564;28;20537;-41
2021/11/06 11:29:11;;;;;;;0.47;0.17;;;19.70;50.10;;;;;;5082321;28;20849;-42
2021/11/06 11:31:40;;;;;;;1.20;0.50;;;19.70;49.90;;;;;;5075605;28;20048;-41
2021/11/06 11:34:09;;;;;;;0.75;0.20;;;19.80;49.70;;;;;;5078114;28;20044;-42
2021/11/06 11:36:38;;;;;;;3.22;0.50;;;19.90;49.60;;;;;;5074878;28;20044;-42
2021/11/06 11:39:08;;;;;;;1.40;0.63;;;19.90;49.40;;;;;;5079669;28;25818;-42
2021/11/06 11:42:27;;;;;;;1.50;0.70;;;20.00;49.20;;;;;;5082819;28;20357;-41
2021/11/06 11:45:15;;;;;;;1.05;0.45;;;20.10;49.00;;;;;;5074235;28;20048;-41
2021/11/06 11:47:47;;;;;;;0.60;0.30;;;20.10;48.90;;;;;;5080965;28;20043;-41
2021/11/06 11:50:17;;;;;;;1.02;0.50;;;20.10;48.80;;;;;;5081010;28;20131;-42
2021/11/06 11:52:50;;;;;;;1.10;0.47;;;20.20;48.60;;;;;;5074335;28;20047;-42
2021/11/06 11:55:19;;;;;;;1.98;0.40;;;20.20;48.50;;;;;;5076439;28;20047;-41
2021/11/06 11:57:53;;;;;;;0.98;0.32;;;20.30;48.40;;;;;;5077260;28;20044;-41
2021/11/06 12:00:42;;;;;;;0.43;0.40;;;20.30;48.20;;;;;;5077771;28;20032;-39
2021/11/06 12:03:10;;;;;;;1.48;0.40;;;20.30;48.00;;;;;;5066909;28;20586;-40
2021/11/06 12:05:39;;;;;;;1.02;0.30;;;20.40;48.10;;;;;;5084058;28;20044;-42
2021/11/06 12:08:35;;;;;;;0.93;0.60;;;20.40;48.00;;;;;;5073702;28;20404;-41
2021/11/06 12:11:24;;;;;;;1.52;0.32;;;20.50;47.80;;;;;;5081198;28;20469;-42
2021/11/06 12:13:54;;;;;;;0.80;0.22;;;20.60;47.70;;;;;;5075012;28;20048;-42
2021/11/06 12:16:24;;;;;;;0.85;0.20;;;20.50;47.60;;;;;;5072892;28;20041;-40
2021/11/06 12:19:00;;;;;;;1.80;0.50;;;20.60;47.60;;;;;;5076075;28;20910;-42
2021/11/06 12:21:40;;;;;;;0.40;0.40;;;20.60;47.40;;;;;;5079187;28;20068;-41
2021/11/06 12:24:28;;;;;;;0.95;0.30;;;20.70;47.30;;;;;;5077067;28;20063;-41
2021/11/06 12:26:59;;;;;;;1.95;0.43;;;20.70;47.20;;;;;;5073977;28;20099;-41
2021/11/06 12:29:54;;;;;;;2.17;0.10;;;20.70;47.10;;;;;;5075499;28;20040;-42
2021/11/06 12:32:28;;;;;;;0.40;0.10;;;20.70;47.00;;;;;;5068909;28;20137;-41
2021/11/06 12:34:56;;;;;;;0.30;0.13;;;20.80;47.00;;;;;;5080281;28;20581;-42
2021/11/06 12:37:50;;;;;;;0.70;0.10;;;20.80;46.90;;;;;;5074851;28;20044;-41
2021/11/06 12:40:23;;;;;;;0.47;0.13;;;20.90;46.80;;;;;;5073079;28;20036;-41
2021/11/06 12:43:09;;;;;;;0.20;0.20;;;20.90;46.80;;;;;;5077540;28;20791;-41
2021/11/06 12:45:40;;;;;;;1.02;0.20;;;20.90;46.70;;;;;;5077629;28;20036;-41
2021/11/06 12:48:10;;;;;;;2.00;0.20;;;20.90;46.70;;;;;;5077002;28;20041;-41
2021/11/06 12:50:38;;;;;;;0.25;0.20;;;21.00;46.60;;;;;;5080084;28;20069;-41
2021/11/06 12:53:05;;;;;;;1.77;0.45;;;21.00;46.60;;;;;;5080860;28;20055;-41
2021/11/06 12:55:33;;;;;;;1.00;0.30;;;21.00;46.40;;;;;;5074809;28;20551;-41